Time;durP1;ratioP1;P1;durP2;ratioP2;P2;SDS_P1;SDS_P2;PMS_P1;PMS_P2;Temp;Humidity;BMP_temperature;BMP_pressure;BME280_temperature;BME280_humidity;BME280_pressure;Samples;Min_cycle;Max_cycle;Signal;HPM_P1;HPM_P2
2023/12/30 00:01:21;;;;;;;3.07;0.57;;;;;;;8.68;100.00;100131.06;5049374;28;20096;-69
2023/12/30 00:03:48;;;;;;;5.05;0.70;;;;;;;8.68;100.00;100130.19;5046919;28;20033;-69
2023/12/30 00:06:15;;;;;;;3.67;0.70;;;;;;;8.69;100.00;100125.81;5046400;28;20486;-69
2023/12/30 00:08:41;;;;;;;2.50;0.40;;;;;;;8.70;100.00;100135.53;5046197;28;20665;-69
2023/12/30 00:11:06;;;;;;;4.05;0.50;;;;;;;8.70;100.00;100143.44;5046302;28;20025;-69
2023/12/30 00:13:31;;;;;;;3.00;0.60;;;;;;;8.68;100.00;100135.47;5046573;28;20094;-68
2023/12/30 00:15:57;;;;;;;3.80;0.40;;;;;;;8.66;100.00;100134.53;5045937;28;20490;-69
2023/12/30 00:18:22;;;;;;;2.53;0.60;;;;;;;8.64;100.00;100138.81;5046514;28;20040;-68
2023/12/30 00:20:48;;;;;;;3.23;0.50;;;;;;;8.63;100.00;100133.50;5046112;28;20107;-68
2023/12/30 00:23:13;;;;;;;4.63;0.60;;;;;;;8.59;100.00;100124.59;5038428;28;20029;-68
2023/12/30 00:25:38;;;;;;;3.43;0.70;;;;;;;8.58;100.00;100121.91;5032902;28;20072;-69
2023/12/30 00:28:04;;;;;;;2.87;0.50;;;;;;;8.54;100.00;100088.38;5032764;28;20099;-69
2023/12/30 00:30:29;;;;;;;2.63;0.50;;;;;;;8.47;100.00;100099.53;5031425;28;20037;-69
2023/12/30 00:32:55;;;;;;;3.17;0.63;;;;;;;8.43;100.00;100079.22;5031537;28;20100;-69
2023/12/30 00:35:22;;;;;;;3.72;0.50;;;;;;;8.39;100.00;100088.69;5031066;28;20025;-69
2023/12/30 00:37:47;;;;;;;4.83;0.70;;;;;;;8.36;100.00;100120.16;5032616;28;20426;-69
2023/12/30 00:42:25;;;;;;;2.92;0.60;;;;;;;8.29;100.00;100133.00;5087569;27;20429;-66
2023/12/30 00:44:50;;;;;;;4.10;0.70;;;;;;;8.29;100.00;100140.88;5087394;28;20540;-68
2023/12/30 00:47:17;;;;;;;5.50;0.50;;;;;;;8.26;100.00;100149.53;5086226;28;20123;-67
2023/12/30 00:49:42;;;;;;;4.80;0.60;;;;;;;8.25;100.00;100135.47;5090379;28;20152;-67
2023/12/30 00:52:08;;;;;;;2.42;0.40;;;;;;;8.21;100.00;100140.56;5087571;28;20070;-67
2023/12/30 00:54:33;;;;;;;2.90;0.50;;;;;;;8.19;100.00;100152.75;5087206;28;20395;-67
2023/12/30 00:56:58;;;;;;;3.90;0.70;;;;;;;8.11;100.00;100157.69;5085892;28;20082;-67
2023/12/30 00:59:24;;;;;;;3.00;0.50;;;;;;;8.07;100.00;100157.50;5087214;28;20120;-67
2023/12/30 01:01:50;;;;;;;3.13;0.60;;;;;;;8.07;100.00;100152.25;5081271;28;20029;-68
2023/12/30 01:04:15;;;;;;;3.17;0.50;;;;;;;8.05;100.00;100149.53;5086938;28;20560;-68
2023/12/30 01:06:41;;;;;;;4.43;0.60;;;;;;;8.06;100.00;100160.97;5086921;28;20112;-68
2023/12/30 01:09:06;;;;;;;5.67;0.50;;;;;;;8.07;100.00;100160.16;5086825;28;20040;-68
2023/12/30 01:11:31;;;;;;;5.17;0.80;;;;;;;8.08;100.00;100159.31;5085790;28;20110;-67
2023/12/30 01:13:57;;;;;;;3.93;0.77;;;;;;;8.07;100.00;100163.69;5085742;28;20048;-68
2023/12/30 01:16:22;;;;;;;6.93;0.70;;;;;;;8.08;100.00;100169.84;5086607;28;20028;-68
2023/12/30 01:18:47;;;;;;;3.35;0.60;;;;;;;8.08;100.00;100173.38;5086897;28;20040;-68
2023/12/30 01:23:44;;;;;;;3.67;0.70;;;;;;;8.10;100.00;100191.81;5067591;28;20408;-69
2023/12/30 01:26:09;;;;;;;2.43;0.50;;;;;;;8.07;100.00;100192.59;5067109;28;20032;-68
2023/12/30 01:28:36;;;;;;;3.10;0.63;;;;;;;8.05;100.00;100191.63;5066065;28;20033;-68
2023/12/30 01:31:03;;;;;;;2.97;0.60;;;;;;;8.03;100.00;100203.84;5047220;28;20048;-68
2023/12/30 01:33:28;;;;;;;4.88;0.77;;;;;;;8.02;100.00;100199.41;5047136;28;20037;-68
2023/12/30 01:35:54;;;;;;;2.67;0.50;;;;;;;8.01;100.00;100208.13;5046849;28;20144;-68
2023/12/30 01:38:20;;;;;;;4.10;0.60;;;;;;;8.00;100.00;100208.94;5047213;28;20064;-69
2023/12/30 01:40:46;;;;;;;3.20;0.70;;;;;;;7.96;100.00;100216.63;5046916;28;20124;-69
2023/12/30 01:43:29;;;;;;;6.83;1.00;;;;;;;7.95;100.00;100215.75;5047061;28;20117;-69
2023/12/30 01:46:07;;;;;;;3.90;0.85;;;;;;;7.89;100.00;100219.84;5046680;28;20044;-68
2023/12/30 01:48:33;;;;;;;4.80;0.77;;;;;;;7.85;100.00;100205.66;5046836;28;20478;-69
2023/12/30 01:51:01;;;;;;;2.92;0.60;;;;;;;7.83;100.00;100204.72;5048861;28;20052;-69
2023/12/30 01:53:31;;;;;;;4.65;1.20;;;;;;;7.84;100.00;100214.41;5045829;28;20025;-68
2023/12/30 01:55:57;;;;;;;3.93;0.73;;;;;;;7.81;100.00;100217.78;5046393;28;20094;-70
2023/12/30 01:58:23;;;;;;;3.50;0.55;;;;;;;7.82;100.00;100210.78;5031753;28;20029;-68
2023/12/30 02:00:49;;;;;;;4.90;0.80;;;;;;;7.81;100.00;100216.88;5035568;28;20041;-68
2023/12/30 02:03:15;;;;;;;3.70;0.60;;;;;;;7.80;100.00;100212.44;5048923;28;20053;-69
2023/12/30 02:05:41;;;;;;;3.25;0.45;;;;;;;7.81;100.00;100217.78;5048078;28;20041;-68
2023/12/30 02:08:08;;;;;;;3.42;0.57;;;;;;;7.81;100.00;100222.13;5046594;28;20120;-68
2023/12/30 02:10:34;;;;;;;5.93;0.90;;;;;;;7.79;100.00;100219.44;5043936;28;20037;-69
2023/12/30 02:13:00;;;;;;;3.20;0.60;;;;;;;7.80;100.00;100225.59;5047615;28;20518;-68
2023/12/30 02:15:25;;;;;;;6.00;0.60;;;;;;;7.80;100.00;100218.59;5047922;28;20120;-68
2023/12/30 02:17:51;;;;;;;4.20;0.53;;;;;;;7.80;100.00;100221.22;5045923;28;20284;-68
2023/12/30 02:20:17;;;;;;;3.37;0.70;;;;;;;7.78;100.00;100203.63;5047476;28;20160;-68
2023/12/30 02:22:47;;;;;;;3.97;0.60;;;;;;;7.78;100.00;100220.28;5045120;28;20033;-69
2023/12/30 02:25:13;;;;;;;2.70;0.45;;;;;;;7.77;100.00;100220.22;5044944;28;20029;-68
2023/12/30 02:27:38;;;;;;;3.85;0.85;;;;;;;7.77;100.00;100225.47;5037330;28;20488;-68
2023/12/30 02:30:04;;;;;;;3.37;0.70;;;;;;;7.74;100.00;100225.34;5028545;28;20038;-68
2023/12/30 02:32:31;;;;;;;3.53;0.50;;;;;;;7.71;100.00;100219.94;5045181;28;20025;-68
2023/12/30 02:34:56;;;;;;;3.77;0.60;;;;;;;7.68;100.00;100227.69;5033657;28;20099;-68
2023/12/30 02:37:21;;;;;;;2.60;0.47;;;;;;;7.67;100.00;100234.69;5032789;28;20038;-68
2023/12/30 02:39:47;;;;;;;2.57;0.50;;;;;;;7.63;100.00;100240.66;5031107;28;20124;-68
2023/12/30 02:42:12;;;;;;;3.23;0.50;;;;;;;7.63;100.00;100229.22;5032720;28;20113;-68
2023/12/30 02:44:37;;;;;;;3.40;0.70;;;;;;;7.60;100.00;100227.34;5032333;28;20375;-69
2023/12/30 02:47:03;;;;;;;3.07;0.50;;;;;;;7.60;100.00;100232.59;5032433;28;20548;-68
2023/12/30 02:49:32;;;;;;;2.90;0.50;;;;;;;7.60;100.00;100236.94;5033400;28;20033;-68
2023/12/30 02:51:57;;;;;;;2.25;0.47;;;;;;;7.55;100.00;100234.13;5034292;28;20132;-67
2023/12/30 02:54:23;;;;;;;3.13;0.60;;;;;;;7.53;100.00;100229.66;5032304;28;20033;-68
2023/12/30 02:56:48;;;;;;;7.00;1.13;;;;;;;7.55;100.00;100228.00;5032376;28;20056;-68
2023/12/30 02:59:13;;;;;;;4.78;0.63;;;;;;;7.57;100.00;100228.94;5032139;28;20121;-68
2023/12/30 03:01:39;;;;;;;4.67;0.50;;;;;;;7.54;100.00;100234.97;5032532;28;20557;-69
2023/12/30 03:04:04;;;;;;;2.50;0.60;;;;;;;7.56;100.00;100229.78;5032316;28;20095;-68
2023/12/30 03:06:29;;;;;;;4.47;0.77;;;;;;;7.57;100.00;100243.00;5032239;28;20561;-69
2023/12/30 03:08:55;;;;;;;2.13;0.40;;;;;;;7.54;100.00;100236.72;5031927;28;20128;-69
2023/12/30 03:11:21;;;;;;;4.07;0.57;;;;;;;7.53;100.00;100245.41;5032209;28;20609;-68
2023/12/30 03:13:46;;;;;;;3.77;0.50;;;;;;;7.57;100.00;100257.84;5032590;28;20038;-68
2023/12/30 03:16:15;;;;;;;6.47;0.82;;;;;;;7.59;100.00;100258.84;5033700;28;20040;-68
2023/12/30 03:18:42;;;;;;;3.70;0.60;;;;;;;7.61;100.00;100257.16;5031047;28;20079;-68
2023/12/30 03:21:10;;;;;;;2.00;0.40;;;;;;;7.62;100.00;100241.47;5031979;28;20052;-68
2023/12/30 03:23:36;;;;;;;5.68;0.50;;;;;;;7.58;100.00;100250.06;5031844;28;20485;-69
2023/12/30 03:26:03;;;;;;;3.28;0.60;;;;;;;7.55;100.00;100246.41;5030098;28;20447;-68
2023/12/30 03:28:28;;;;;;;4.13;0.60;;;;;;;7.54;100.00;100241.97;5031742;28;20030;-68
2023/12/30 03:30:54;;;;;;;4.20;0.63;;;;;;;7.56;100.00;100245.53;5027491;28;20041;-68
2023/12/30 03:33:19;;;;;;;3.07;0.57;;;;;;;7.59;100.00;100235.19;5030447;28;20080;-68
2023/12/30 03:37:59;;;;;;;2.45;0.50;;;;;;;7.57;100.00;100189.53;5067385;28;20373;-67
2023/12/30 03:40:24;;;;;;;2.93;0.50;;;;;;;7.55;100.00;100192.09;5053297;28;20033;-68
2023/12/30 03:42:49;;;;;;;4.17;0.70;;;;;;;7.56;100.00;100187.72;5045996;28;20846;-68
2023/12/30 03:45:15;;;;;;;2.77;0.50;;;;;;;7.52;100.00;100206.81;5046765;28;20035;-67
2023/12/30 03:47:41;;;;;;;2.90;0.50;;;;;;;7.47;100.00;100221.47;5047331;28;20379;-67
2023/12/30 03:50:07;;;;;;;3.17;0.40;;;;;;;7.43;100.00;100233.59;5049119;28;20053;-67
2023/12/30 03:52:32;;;;;;;4.27;0.67;;;;;;;7.37;100.00;100233.31;5045902;28;20130;-67
2023/12/30 03:54:58;;;;;;;4.13;0.50;;;;;;;7.34;100.00;100231.47;5046701;28;20444;-69
2023/12/30 03:59:40;;;;;;;3.20;0.75;;;;;;;7.35;100.00;100233.22;5107762;27;20365;-69
2023/12/30 04:02:05;;;;;;;2.30;0.57;;;;;;;7.38;100.00;100246.53;5087755;28;20480;-68
2023/12/30 04:04:30;;;;;;;2.85;0.40;;;;;;;7.40;100.00;100248.34;5087001;28;20123;-68
2023/12/30 04:06:56;;;;;;;3.90;0.40;;;;;;;7.35;100.00;100249.00;5087232;28;20614;-67
2023/12/30 04:09:21;;;;;;;3.20;0.50;;;;;;;7.41;100.00;100247.47;5085843;28;20032;-69
2023/12/30 04:11:46;;;;;;;2.07;0.40;;;;;;;7.42;100.00;100250.19;5087301;28;20043;-69
2023/12/30 04:14:12;;;;;;;2.30;0.33;;;;;;;7.41;100.00;100255.34;5086942;28;20107;-69
2023/12/30 04:16:37;;;;;;;2.30;0.40;;;;;;;7.36;100.00;100252.53;5085874;28;20103;-69
2023/12/30 04:19:02;;;;;;;2.47;0.40;;;;;;;7.35;100.00;100251.63;5086865;28;20036;-68
2023/12/30 04:21:28;;;;;;;2.90;0.53;;;;;;;7.36;100.00;100263.03;5086982;28;20034;-69
2023/12/30 04:23:54;;;;;;;3.03;0.40;;;;;;;7.33;100.00;100269.06;5085812;28;20500;-69
2023/12/30 04:26:19;;;;;;;1.92;0.35;;;;;;;7.34;100.00;100281.38;5086540;28;20085;-69
2023/12/30 04:28:46;;;;;;;2.30;0.30;;;;;;;7.31;100.00;100275.06;5085624;28;20054;-69
2023/12/30 04:31:11;;;;;;;3.13;0.40;;;;;;;7.33;100.00;100284.81;5085933;28;20035;-68
2023/12/30 04:33:37;;;;;;;4.13;1.13;;;;;;;7.31;100.00;100275.06;5087046;28;20032;-69
2023/12/30 04:36:02;;;;;;;2.40;0.30;;;;;;;7.29;100.00;100280.25;5086428;28;20044;-69
2023/12/30 04:38:28;;;;;;;2.83;0.30;;;;;;;7.24;100.00;100271.25;5085624;28;20626;-69
2023/12/30 04:40:53;;;;;;;2.00;0.30;;;;;;;7.24;100.00;100287.03;5085329;28;20484;-70
2023/12/30 04:43:19;;;;;;;2.77;0.30;;;;;;;7.17;100.00;100295.44;5086622;28;20070;-66
2023/12/30 04:45:44;;;;;;;3.67;0.40;;;;;;;7.11;100.00;100292.50;5085233;28;20459;-67
2023/12/30 04:48:09;;;;;;;4.27;0.30;;;;;;;7.06;100.00;100301.91;5085346;28;20039;-70
2023/12/30 04:50:35;;;;;;;3.17;0.40;;;;;;;7.09;100.00;100309.03;5088648;28;20697;-68
2023/12/30 04:53:00;;;;;;;2.80;0.30;;;;;;;7.05;100.00;100312.34;5086562;28;20042;-68
2023/12/30 04:55:25;;;;;;;1.80;0.30;;;;;;;7.02;100.00;100307.84;5067944;28;20115;-68
2023/12/30 04:57:51;;;;;;;6.43;0.77;;;;;;;7.05;100.00;100310.63;5086331;28;20050;-69
2023/12/30 05:00:17;;;;;;;1.53;0.30;;;;;;;7.10;100.00;100311.75;5085326;28;20480;-68
2023/12/30 05:02:43;;;;;;;2.03;0.30;;;;;;;7.09;100.00;100319.53;5086711;28;20623;-68
2023/12/30 05:05:09;;;;;;;3.50;0.40;;;;;;;7.05;100.00;100326.38;5086247;28;20085;-68
2023/12/30 05:07:34;;;;;;;3.13;0.40;;;;;;;7.00;100.00;100329.59;5086211;28;20290;-68
2023/12/30 05:09:59;;;;;;;3.03;0.40;;;;;;;6.97;100.00;100340.84;5076280;28;20128;-68
2023/12/30 05:12:25;;;;;;;3.77;0.40;;;;;;;6.89;100.00;100345.72;5072817;28;20546;-68
2023/12/30 05:14:50;;;;;;;2.20;0.40;;;;;;;6.91;100.00;100351.94;5072588;28;20036;-68
2023/12/30 05:17:16;;;;;;;2.80;0.50;;;;;;;6.91;100.00;100361.53;5066559;28;20046;-67
2023/12/30 05:19:41;;;;;;;2.17;0.40;;;;;;;6.94;100.00;100356.47;5072425;28;20045;-67
2023/12/30 05:22:06;;;;;;;2.07;0.37;;;;;;;6.96;100.00;100365.28;5072857;28;20104;-68
2023/12/30 05:24:32;;;;;;;1.73;0.30;;;;;;;6.94;100.00;100367.88;5072603;28;20298;-68
2023/12/30 05:26:57;;;;;;;2.87;0.40;;;;;;;6.95;100.00;100366.13;5072397;28;20120;-68
2023/12/30 05:29:23;;;;;;;3.20;0.40;;;;;;;6.92;100.00;100373.84;5072463;28;20024;-68
2023/12/30 05:31:49;;;;;;;2.33;0.47;;;;;;;6.87;100.00;100377.97;5072722;28;20044;-68
2023/12/30 05:34:14;;;;;;;2.53;0.40;;;;;;;6.76;100.00;100371.31;5072630;28;20127;-68
2023/12/30 05:36:39;;;;;;;3.27;0.60;;;;;;;6.67;100.00;100381.31;5072094;28;20077;-68
2023/12/30 05:39:05;;;;;;;4.07;0.43;;;;;;;6.64;100.00;100381.19;5070655;28;20040;-67
2023/12/30 05:41:30;;;;;;;2.37;0.33;;;;;;;6.63;100.00;100389.88;5072114;28;20285;-68
2023/12/30 05:43:55;;;;;;;2.63;0.50;;;;;;;6.58;100.00;100387.00;5072263;28;20036;-69
2023/12/30 05:46:21;;;;;;;3.47;0.50;;;;;;;6.53;100.00;100387.59;5071554;28;20048;-68
2023/12/30 05:48:46;;;;;;;3.37;0.50;;;;;;;6.46;100.00;100392.53;5071348;28;20111;-71
2023/12/30 05:51:12;;;;;;;3.10;0.43;;;;;;;6.46;100.00;100407.38;5075216;28;20116;-68
2023/12/30 05:53:39;;;;;;;3.23;0.40;;;;;;;6.42;100.00;100411.56;5071802;28;20817;-68
2023/12/30 05:56:04;;;;;;;2.63;0.40;;;;;;;6.45;100.00;100400.34;5068704;28;20043;-69
2023/12/30 06:00:42;;;;;;;2.55;0.57;;;;;;;6.51;100.00;100426.88;5081810;28;20430;-66
2023/12/30 06:05:37;;;;;;;3.30;0.40;;;;;;;6.54;100.00;100429.66;5063188;28;20419;-69
2023/12/30 06:08:02;;;;;;;4.33;0.40;;;;;;;6.46;100.00;100426.63;5067255;28;20036;-68
2023/12/30 06:10:27;;;;;;;3.08;0.40;;;;;;;6.46;100.00;100436.25;5039212;28;20406;-68
2023/12/30 06:12:53;;;;;;;4.27;0.57;;;;;;;6.43;100.00;100433.44;5006838;28;20664;-65
2023/12/30 06:15:20;;;;;;;3.10;0.60;;;;;;;6.37;100.00;100427.88;4999540;28;20042;-71
2023/12/30 06:17:46;;;;;;;3.88;0.50;;;;;;;6.34;100.00;100440.84;5006444;28;20042;-73
2023/12/30 06:22:27;;;;;;;2.03;0.30;;;;;;;6.35;100.00;100446.16;5087334;27;20404;-67
2023/12/30 06:24:53;;;;;;;4.33;0.60;;;;;;;6.31;100.00;100449.47;5086951;28;20430;-67
2023/12/30 06:27:20;;;;;;;2.37;0.50;;;;;;;6.23;100.00;100449.84;5089029;28;20278;-68
2023/12/30 06:29:45;;;;;;;2.72;0.40;;;;;;;6.20;100.00;100468.06;5062837;28;20460;-67
2023/12/30 06:32:10;;;;;;;4.63;0.67;;;;;;;6.21;100.00;100468.16;5060028;28;20132;-68
2023/12/30 06:34:36;;;;;;;5.10;0.90;;;;;;;6.27;100.00;100478.03;5066596;28;20043;-65
2023/12/30 06:37:01;;;;;;;4.43;0.60;;;;;;;6.55;100.00;100480.41;5066581;28;20071;-68
2023/12/30 06:39:27;;;;;;;4.20;0.63;;;;;;;6.53;100.00;100482.03;5066785;28;20063;-73
2023/12/30 06:41:52;;;;;;;3.05;0.35;;;;;;;6.45;100.00;100487.81;5066750;28;20052;-67
2023/12/30 06:44:18;;;;;;;3.03;0.40;;;;;;;6.37;100.00;100489.09;5065372;28;20120;-65
2023/12/30 06:46:43;;;;;;;5.15;0.73;;;;;;;6.31;100.00;100494.03;5066722;28;20060;-65
2023/12/30 06:49:09;;;;;;;3.30;0.50;;;;;;;6.29;100.00;100493.03;5066502;28;20116;-66
2023/12/30 06:51:34;;;;;;;2.83;0.50;;;;;;;6.27;99.76;100497.28;5070186;28;20106;-65
2023/12/30 06:53:59;;;;;;;3.10;0.40;;;;;;;6.25;99.34;100512.06;5066123;28;20043;-65
2023/12/30 06:56:25;;;;;;;1.87;0.30;;;;;;;6.21;99.54;100515.34;5066337;28;20115;-65
2023/12/30 06:58:51;;;;;;;6.43;0.80;;;;;;;6.16;99.77;100513.28;5066215;28;20094;-65
2023/12/30 07:01:19;;;;;;;4.60;0.70;;;;;;;6.18;100.00;100519.50;5066424;28;20094;-64
2023/12/30 07:03:44;;;;;;;3.83;0.75;;;;;;;6.18;99.80;100520.41;5066527;28;20626;-64
2023/12/30 07:06:10;;;;;;;2.97;0.50;;;;;;;6.21;99.67;100525.84;5060156;28;20151;-64
2023/12/30 07:08:35;;;;;;;3.70;0.50;;;;;;;6.21;99.74;100531.06;5066420;28;20112;-69
2023/12/30 07:11:01;;;;;;;3.13;0.60;;;;;;;6.20;99.51;100541.47;5065938;28;20099;-65
2023/12/30 07:13:26;;;;;;;7.83;0.60;;;;;;;6.19;99.58;100537.94;5066308;28;20052;-65
2023/12/30 07:15:52;;;;;;;3.10;0.60;;;;;;;6.18;99.47;100540.47;5064610;28;20032;-65
2023/12/30 07:18:17;;;;;;;5.17;0.60;;;;;;;6.16;99.11;100542.13;5066007;28;20071;-66
2023/12/30 07:20:43;;;;;;;5.17;0.70;;;;;;;6.13;99.30;100550.72;5065841;28;20052;-65
2023/12/30 07:23:09;;;;;;;4.90;0.60;;;;;;;6.06;99.44;100551.22;5065979;28;20032;-66
2023/12/30 07:25:34;;;;;;;3.63;0.50;;;;;;;6.05;99.39;100554.66;5065698;28;20497;-64
2023/12/30 07:28:00;;;;;;;5.47;0.60;;;;;;;6.02;99.57;100554.44;5066085;28;20063;-66
2023/12/30 07:30:25;;;;;;;3.30;0.80;;;;;;;5.97;99.60;100558.56;5066778;28;20291;-65
2023/12/30 07:32:50;;;;;;;3.80;0.60;;;;;;;5.93;99.98;100570.56;5049527;28;20033;-66
2023/12/30 07:35:16;;;;;;;4.17;0.47;;;;;;;5.90;100.00;100574.75;5059206;28;20033;-65
2023/12/30 07:37:42;;;;;;;3.42;0.50;;;;;;;5.86;100.00;100570.13;5052239;28;20048;-65
2023/12/30 07:40:07;;;;;;;5.47;0.60;;;;;;;5.86;100.00;100575.38;5052445;28;20127;-66
2023/12/30 07:42:33;;;;;;;2.75;0.40;;;;;;;5.86;100.00;100583.22;5052096;28;20083;-65
2023/12/30 07:44:59;;;;;;;4.07;0.60;;;;;;;5.81;100.00;100580.34;5067671;28;20036;-66
2023/12/30 07:47:25;;;;;;;5.77;0.60;;;;;;;5.82;100.00;100582.13;5052648;28;20040;-65
2023/12/30 07:49:51;;;;;;;3.70;0.63;;;;;;;5.86;100.00;100584.13;5053982;28;20291;-65
2023/12/30 07:52:16;;;;;;;2.50;0.47;;;;;;;5.85;100.00;100581.41;5051106;28;20601;-65
2023/12/30 07:54:41;;;;;;;6.33;0.70;;;;;;;5.88;100.00;100592.09;5071406;28;20041;-65
2023/12/30 07:57:07;;;;;;;3.17;0.67;;;;;;;5.90;100.00;100594.00;5059207;28;20545;-65
2023/12/30 07:59:32;;;;;;;3.00;0.53;;;;;;;5.89;100.00;100596.53;5051346;28;20174;-65
2023/12/30 08:01:58;;;;;;;5.83;0.60;;;;;;;5.91;100.00;100600.16;5055771;28;20508;-65
2023/12/30 08:04:24;;;;;;;3.33;0.65;;;;;;;5.93;100.00;100604.66;5051212;28;20053;-65
2023/12/30 08:06:50;;;;;;;3.17;0.50;;;;;;;5.95;100.00;100610.91;5051750;28;20037;-65
2023/12/30 08:09:16;;;;;;;5.88;0.57;;;;;;;5.95;100.00;100620.47;5037329;28;20053;-65
2023/12/30 08:11:42;;;;;;;6.57;1.13;;;;;;;5.96;100.00;100624.91;5020403;28;20079;-65
2023/12/30 08:14:08;;;;;;;3.87;0.70;;;;;;;6.01;100.00;100623.47;5028658;28;20038;-65
2023/12/30 08:16:37;;;;;;;6.13;0.60;;;;;;;6.00;100.00;100632.13;5028819;28;20045;-65
2023/12/30 08:19:03;;;;;;;3.28;0.60;;;;;;;6.02;100.00;100623.50;5028083;28;20049;-66
2023/12/30 08:21:29;;;;;;;3.55;0.55;;;;;;;6.02;100.00;100622.59;5028819;28;20049;-66
2023/12/30 08:23:56;;;;;;;2.60;0.43;;;;;;;6.04;100.00;100621.00;5028698;28;20045;-66
2023/12/30 08:26:22;;;;;;;4.38;0.75;;;;;;;6.07;100.00;100634.25;5027810;28;20075;-65
2023/12/30 08:28:48;;;;;;;2.92;0.60;;;;;;;6.05;100.00;100623.72;5003888;28;20081;-66
2023/12/30 08:31:13;;;;;;;4.67;0.60;;;;;;;6.10;100.00;100623.97;5028722;28;20065;-66
2023/12/30 08:33:39;;;;;;;3.53;0.40;;;;;;;6.17;100.00;100630.47;5028662;28;20045;-67
2023/12/30 08:36:04;;;;;;;2.20;0.43;;;;;;;6.18;100.00;100627.91;5018058;28;20046;-66
2023/12/30 08:38:31;;;;;;;4.83;0.70;;;;;;;6.21;99.50;100630.72;5011722;28;20073;-66
2023/12/30 08:40:57;;;;;;;4.35;0.57;;;;;;;6.25;99.41;100627.47;5011534;28;20129;-66
2023/12/30 08:43:23;;;;;;;5.22;1.15;;;;;;;6.32;98.64;100634.81;5011702;28;20424;-66
2023/12/30 08:45:48;;;;;;;7.90;1.23;;;;;;;6.31;98.09;100643.53;5010741;28;20045;-66
2023/12/30 08:48:13;;;;;;;5.93;0.97;;;;;;;6.36;97.85;100642.09;5011723;28;20046;-66
2023/12/30 08:50:39;;;;;;;5.18;0.70;;;;;;;6.40;97.54;100637.91;5010504;28;20034;-67
2023/12/30 08:53:04;;;;;;;4.60;0.60;;;;;;;6.41;97.19;100645.81;5010372;28;20045;-66
2023/12/30 08:55:29;;;;;;;4.77;0.67;;;;;;;6.43;96.87;100656.41;5011222;28;20164;-66
2023/12/30 08:57:55;;;;;;;5.87;1.00;;;;;;;6.46;96.87;100647.00;5008856;28;20033;-66
2023/12/30 09:00:20;;;;;;;5.17;0.70;;;;;;;6.47;96.54;100656.66;5013356;28;20458;-67
2023/12/30 09:02:48;;;;;;;3.70;0.82;;;;;;;6.51;96.40;100642.91;5014982;28;20034;-66
2023/12/30 09:05:18;;;;;;;6.83;1.00;;;;;;;6.57;95.92;100651.94;5009758;28;20088;-66
2023/12/30 09:07:44;;;;;;;11.80;1.42;;;;;;;6.66;94.92;100645.47;5011199;28;20041;-66
2023/12/30 09:10:09;;;;;;;5.43;0.73;;;;;;;6.70;94.43;100657.06;5011141;28;20034;-66
2023/12/30 09:12:34;;;;;;;10.70;0.73;;;;;;;6.77;94.11;100657.44;5011221;28;20459;-66
2023/12/30 09:15:00;;;;;;;5.90;1.10;;;;;;;6.80;93.50;100657.63;5010519;28;20120;-66
2023/12/30 09:17:25;;;;;;;4.03;0.70;;;;;;;6.82;93.55;100666.47;5011211;28;20534;-67
2023/12/30 09:19:51;;;;;;;6.23;0.87;;;;;;;6.85;93.10;100668.38;5010818;28;20091;-66
2023/12/30 09:22:16;;;;;;;6.07;0.80;;;;;;;6.87;93.19;100674.59;5010636;28;20812;-67
2023/12/30 09:24:41;;;;;;;4.30;0.77;;;;;;;6.90;92.62;100673.06;5011826;28;20041;-67
2023/12/30 09:27:08;;;;;;;8.10;0.90;;;;;;;6.96;92.98;100680.34;5013048;28;20053;-66
2023/12/30 09:29:33;;;;;;;7.22;0.90;;;;;;;7.00;92.94;100698.09;5012677;28;20041;-66
2023/12/30 09:31:59;;;;;;;7.95;0.80;;;;;;;7.04;92.62;100684.31;5012693;28;20034;-67
2023/12/30 09:34:24;;;;;;;3.83;0.60;;;;;;;7.11;92.46;100689.06;5013121;28;20038;-66
2023/12/30 09:36:50;;;;;;;6.47;0.93;;;;;;;7.16;92.03;100698.06;5012600;28;20038;-67
2023/12/30 09:39:15;;;;;;;6.90;0.90;;;;;;;7.21;91.31;100691.34;5012124;28;20042;-66
2023/12/30 09:41:41;;;;;;;5.87;0.87;;;;;;;7.27;90.95;100696.94;5010762;28;20781;-66
2023/12/30 09:44:08;;;;;;;8.20;1.00;;;;;;;7.31;90.68;100695.38;5010658;28;20041;-66
2023/12/30 09:46:37;;;;;;;4.57;0.75;;;;;;;7.38;89.98;100706.28;5010532;28;20049;-66
2023/12/30 09:49:03;;;;;;;7.45;1.52;;;;;;;7.43;90.17;100705.63;5010257;28;20046;-66
2023/12/30 09:51:31;;;;;;;5.70;1.15;;;;;;;7.46;90.16;100717.19;5010395;28;20037;-66
2023/12/30 09:53:56;;;;;;;4.67;0.80;;;;;;;7.53;90.05;100710.53;5010409;28;20402;-66
2023/12/30 09:56:24;;;;;;;6.50;0.90;;;;;;;7.58;89.93;100711.69;5010038;28;20026;-66
2023/12/30 09:58:49;;;;;;;4.13;0.73;;;;;;;7.58;89.70;100716.94;5010278;28;20129;-67
2023/12/30 10:01:16;;;;;;;3.77;0.93;;;;;;;7.62;89.20;100705.75;5016791;28;20109;-66
2023/12/30 10:03:41;;;;;;;6.50;0.90;;;;;;;7.69;89.22;100707.91;5010431;28;20049;-66
2023/12/30 10:06:11;;;;;;;3.45;1.00;;;;;;;7.73;88.72;100707.22;5009952;28;20045;-66
2023/12/30 10:08:37;;;;;;;4.90;1.00;;;;;;;7.75;88.93;100732.75;5010646;28;20042;-66
2023/12/30 10:11:08;;;;;;;4.15;0.80;;;;;;;7.75;86.69;100714.34;5010080;28;20034;-66
2023/12/30 10:13:36;;;;;;;11.97;1.13;;;;;;;7.78;86.34;100725.03;5010430;28;20041;-66
2023/12/30 10:16:05;;;;;;;5.47;0.85;;;;;;;7.81;86.58;100713.78;5009913;28;20057;-66
2023/12/30 10:18:34;;;;;;;4.40;0.90;;;;;;;7.89;86.95;100722.97;5010598;28;20045;-66
2023/12/30 10:21:00;;;;;;;7.38;1.23;;;;;;;7.91;87.06;100729.19;5008430;28;20060;-67
2023/12/30 10:23:30;;;;;;;4.70;0.77;;;;;;;7.98;85.75;100730.41;5010352;28;20046;-66
2023/12/30 10:25:55;;;;;;;7.13;0.82;;;;;;;8.03;86.24;100732.47;5009947;28;20034;-67
2023/12/30 10:28:21;;;;;;;5.20;1.57;;;;;;;8.06;85.93;100735.22;5010209;28;20553;-66
2023/12/30 10:30:49;;;;;;;13.80;1.73;;;;;;;8.09;85.33;100737.13;5010008;28;20513;-66
2023/12/30 10:33:15;;;;;;;10.10;0.90;;;;;;;8.13;85.32;100737.34;5010352;28;20082;-66
2023/12/30 10:35:42;;;;;;;7.10;0.97;;;;;;;8.16;85.62;100742.75;5009970;28;20034;-66
2023/12/30 10:38:09;;;;;;;10.27;1.00;;;;;;;8.17;86.41;100736.69;5010187;28;20521;-66
2023/12/30 10:40:34;;;;;;;5.85;1.30;;;;;;;8.16;84.98;100741.84;5009967;28;20041;-66
2023/12/30 10:43:01;;;;;;;10.60;1.20;;;;;;;8.16;85.64;100742.75;5010092;28;20118;-67
2023/12/30 10:45:26;;;;;;;4.95;0.90;;;;;;;8.20;85.59;100742.09;5009731;28;20061;-66
2023/12/30 10:47:54;;;;;;;8.65;1.20;;;;;;;8.25;85.52;100742.31;5009914;28;20455;-66
2023/12/30 10:50:22;;;;;;;6.70;1.02;;;;;;;8.29;85.43;100751.28;5009966;28;20057;-67
2023/12/30 10:52:59;;;;;;;5.53;1.10;;;;;;;8.32;84.69;100743.56;5010104;28;20069;-66
2023/12/30 10:55:30;;;;;;;7.40;1.50;;;;;;;8.32;82.47;100754.09;5010149;28;20132;-66
2023/12/30 10:58:03;;;;;;;14.73;1.40;;;;;;;8.34;82.48;100758.59;5009971;28;20030;-66
2023/12/30 11:00:35;;;;;;;9.98;1.52;;;;;;;8.40;81.98;100758.00;5013469;28;20083;-66
2023/12/30 11:03:01;;;;;;;8.07;1.17;;;;;;;8.44;82.00;100759.94;5011570;28;20050;-66
2023/12/30 11:05:37;;;;;;;6.23;1.10;;;;;;;8.49;81.88;100751.44;5041536;28;20513;-66
2023/12/30 11:08:04;;;;;;;5.82;1.25;;;;;;;8.53;82.22;100749.91;5011657;28;20068;-66
2023/12/30 11:10:29;;;;;;;8.68;1.20;;;;;;;8.55;82.46;100753.47;5013577;28;20124;-66
2023/12/30 11:12:55;;;;;;;7.40;1.20;;;;;;;8.57;82.68;100758.00;5013518;28;20044;-66
2023/12/30 11:15:30;;;;;;;7.73;1.20;;;;;;;8.61;81.93;100764.31;5013197;28;20174;-66
2023/12/30 11:17:57;;;;;;;11.52;1.27;;;;;;;8.61;81.94;100759.06;5012471;28;20062;-66
2023/12/30 11:20:30;;;;;;;5.72;1.00;;;;;;;8.63;81.07;100758.28;5013405;28;20030;-66
2023/12/30 11:23:00;;;;;;;10.18;0.82;;;;;;;8.65;80.84;100755.75;5013527;28;20064;-65
2023/12/30 11:25:37;;;;;;;6.03;1.08;;;;;;;8.63;80.14;100750.38;5012842;28;20034;-65
2023/12/30 11:28:22;;;;;;;7.03;1.30;;;;;;;8.66;80.70;100749.66;5013033;28;20038;-66
2023/12/30 11:31:00;;;;;;;6.65;1.00;;;;;;;8.67;80.32;100743.56;5013074;28;20040;-66
2023/12/30 11:33:26;;;;;;;6.95;1.20;;;;;;;8.69;80.01;100734.00;5013239;28;20046;-66
2023/12/30 11:35:55;;;;;;;9.73;1.27;;;;;;;8.71;80.31;100742.88;5011438;28;20069;-66
2023/12/30 11:38:21;;;;;;;7.43;1.20;;;;;;;8.73;80.34;100735.97;5013178;28;20042;-66